Time;durP1;ratioP1;P1;durP2;ratioP2;P2;SDS_P1;SDS_P2;PMS_P1;PMS_P2;Temp;Humidity;BMP_temperature;BMP_pressure;BME280_temperature;BME280_humidity;BME280_pressure;Samples;Min_cycle;Max_cycle;Signal;HPM_P1;HPM_P2
2022/07/01 00:00:27;;;;;;;9.80;8.80;;;;;;;21.95;77.19;99895.53;1753865;79;21025;-77
2022/07/01 00:02:53;;;;;;;9.75;7.28;;;;;;;21.99;77.27;99904.27;1764846;79;21041;-79
2022/07/01 00:05:20;;;;;;;8.00;6.33;;;;;;;21.96;77.22;99898.00;1752558;81;21025;-77
2022/07/01 00:07:48;;;;;;;10.03;6.87;;;;;;;21.91;76.53;99901.13;1755194;79;21059;-77
2022/07/01 00:10:14;;;;;;;8.30;7.60;;;;;;;21.89;75.80;99905.42;1756119;79;21129;-78
2022/07/01 00:12:42;;;;;;;11.50;8.30;;;;;;;21.91;75.94;99899.24;1761251;79;21160;-79
2022/07/01 00:15:09;;;;;;;9.80;8.90;;;;;;;21.94;75.79;99901.98;1757994;80;20993;-78
2022/07/01 00:17:36;;;;;;;9.53;7.75;;;;;;;21.99;76.30;99903.45;1768528;79;21069;-78
2022/07/01 00:20:04;;;;;;;9.58;8.33;;;;;;;22.05;76.36;99900.33;1759227;80;21332;-77
2022/07/01 00:22:30;;;;;;;10.40;9.45;;;;;;;22.01;75.95;99901.33;1775763;79;21854;-79
2022/07/01 00:24:57;;;;;;;14.00;7.97;;;;;;;21.96;76.60;99901.22;1785005;79;21108;-77
2022/07/01 00:27:23;;;;;;;11.45;9.10;;;;;;;21.93;77.24;99908.48;1786635;79;21065;-78
2022/07/01 00:29:50;;;;;;;12.30;8.83;;;;;;;21.86;77.27;99903.18;1774709;79;21008;-76
2022/07/01 00:32:16;;;;;;;10.55;7.53;;;;;;;21.84;77.52;99896.38;1778712;79;21088;-79
2022/07/01 00:34:43;;;;;;;8.33;7.62;;;;;;;21.84;77.67;99899.89;1776717;79;21146;-80
2022/07/01 00:37:09;;;;;;;8.55;7.75;;;;;;;21.76;77.68;99894.86;1796132;79;21037;-79
2022/07/01 00:39:36;;;;;;;8.90;8.10;;;;;;;21.67;77.83;99893.58;1778790;79;21492;-79
2022/07/01 00:42:04;;;;;;;11.10;7.95;;;;;;;21.60;78.14;99897.77;1775659;79;21056;-79
2022/07/01 00:44:31;;;;;;;8.25;7.45;;;;;;;21.52;78.25;99894.91;1783808;79;21049;-78
2022/07/01 00:47:00;;;;;;;8.70;6.90;;;;;;;21.52;78.13;99891.39;1774217;79;21977;-78
2022/07/01 00:49:27;;;;;;;8.50;7.70;;;;;;;21.62;78.21;99902.95;1792787;79;20984;-78
2022/07/01 00:51:54;;;;;;;7.92;7.12;;;;;;;21.56;78.59;99902.83;1777770;79;21017;-76
2022/07/01 00:54:20;;;;;;;8.85;7.58;;;;;;;21.49;78.84;99903.47;1775553;79;21061;-79
2022/07/01 00:56:48;;;;;;;8.85;7.22;;;;;;;21.44;79.26;99901.17;1787139;79;21607;-77
2022/07/01 00:59:15;;;;;;;7.90;7.03;;;;;;;21.45;79.07;99894.73;1781732;79;21718;-79
2022/07/01 01:01:43;;;;;;;8.63;7.00;;;;;;;21.53;78.53;99890.31;1783168;79;21537;-77
2022/07/01 01:04:09;;;;;;;11.85;7.00;;;;;;;21.53;78.24;99891.12;1764840;79;21531;-78
2022/07/01 01:06:36;;;;;;;10.60;6.53;;;;;;;21.52;77.27;99893.55;1765833;79;21588;-78
2022/07/01 01:09:03;;;;;;;7.67;6.42;;;;;;;21.53;76.61;99893.83;1788242;79;21577;-78
2022/07/01 01:11:31;;;;;;;8.85;6.60;;;;;;;21.59;76.00;99898.82;1777558;79;21230;-77
2022/07/01 01:13:58;;;;;;;9.90;5.95;;;;;;;21.65;75.67;99896.52;1770511;79;21141;-80
2022/07/01 01:16:25;;;;;;;6.42;5.62;;;;;;;21.79;75.19;99897.92;1736643;81;21502;-80
2022/07/01 01:18:53;;;;;;;7.87;6.95;;;;;;;21.84;74.58;99890.97;1767533;79;21045;-80
2022/07/01 01:21:20;;;;;;;9.63;6.45;;;;;;;21.86;74.58;99892.91;1767982;79;21005;-78
2022/07/01 01:23:46;;;;;;;10.20;6.37;;;;;;;21.83;75.04;99886.09;1773269;77;21104;-78
2022/07/01 01:26:20;;;;;;;6.17;5.58;;;;;;;21.86;76.00;99891.55;1806213;77;21005;-79
2022/07/01 01:28:48;;;;;;;6.15;5.65;;;;;;;21.82;75.78;99889.84;1773396;78;21249;-80
2022/07/01 01:31:15;;;;;;;6.17;5.62;;;;;;;21.78;75.11;99890.85;1776803;80;21001;-79
2022/07/01 01:33:42;;;;;;;9.13;6.25;;;;;;;21.84;74.36;99895.03;1776359;79;21017;-76
2022/07/01 01:36:09;;;;;;;8.20;6.22;;;;;;;21.91;74.02;99894.37;1789464;78;21559;-76
2022/07/01 01:38:36;;;;;;;11.75;6.70;;;;;;;21.90;73.60;99895.42;1766156;78;21062;-77
2022/07/01 01:41:05;;;;;;;11.43;7.00;;;;;;;21.86;73.65;99896.42;1771057;79;21112;-79
2022/07/01 01:43:35;;;;;;;8.98;6.87;;;;;;;21.85;73.81;99907.50;1771764;79;21021;-75
2022/07/01 01:46:03;;;;;;;8.40;6.03;;;;;;;21.80;74.00;99902.25;1769191;80;21166;-77
2022/07/01 01:48:30;;;;;;;7.62;5.90;;;;;;;21.82;73.86;99913.38;1781454;80;21549;-75
2022/07/01 01:50:58;;;;;;;6.80;6.10;;;;;;;21.87;73.76;99909.44;1774908;80;21054;-76
2022/07/01 01:53:25;;;;;;;7.05;6.10;;;;;;;21.84;73.61;99909.36;1788360;78;21029;-76
2022/07/01 01:55:53;;;;;;;6.12;5.62;;;;;;;21.81;73.81;99911.20;1789850;78;21014;-76
2022/07/01 01:58:19;;;;;;;6.62;5.90;;;;;;;21.78;73.95;99912.48;1780423;78;21061;-76
2022/07/01 02:00:47;;;;;;;6.75;6.08;;;;;;;21.73;74.43;99908.34;1789874;78;21631;-76
2022/07/01 02:03:14;;;;;;;6.15;5.55;;;;;;;21.72;74.49;99913.98;1783829;79;21639;-77
2022/07/01 02:05:41;;;;;;;6.10;5.60;;;;;;;21.80;74.34;99917.13;1779270;80;21016;-77
2022/07/01 02:08:08;;;;;;;6.85;6.35;;;;;;;21.86;74.16;99917.23;1794129;79;21070;-78
2022/07/01 02:10:35;;;;;;;7.00;6.40;;;;;;;21.85;74.70;99910.20;1778415;79;21060;-79
2022/07/01 02:13:03;;;;;;;7.53;6.67;;;;;;;21.79;74.64;99908.73;1761137;80;21505;-76
2022/07/01 02:15:30;;;;;;;7.55;5.87;;;;;;;21.82;74.86;99912.02;1762208;80;21496;-75
2022/07/01 02:17:57;;;;;;;6.75;5.90;;;;;;;21.79;74.87;99911.44;1768964;80;21134;-75
2022/07/01 02:20:24;;;;;;;6.92;5.62;;;;;;;21.84;74.80;99905.30;1766217;79;21031;-79
2022/07/01 02:22:51;;;;;;;6.08;5.47;;;;;;;21.94;74.69;99908.24;1763971;79;21050;-77
2022/07/01 02:25:18;;;;;;;6.60;5.55;;;;;;;21.96;74.28;99907.47;1755376;80;21168;-79
2022/07/01 02:27:45;;;;;;;6.37;5.72;;;;;;;21.96;74.04;99906.62;1784588;79;21013;-78
2022/07/01 02:30:12;;;;;;;7.17;6.25;;;;;;;21.96;74.04;99903.41;1789560;79;20961;-77
2022/07/01 02:32:40;;;;;;;7.08;6.47;;;;;;;21.99;74.22;99911.03;1761050;80;21073;-78
2022/07/01 02:35:07;;;;;;;8.05;7.30;;;;;;;22.01;73.96;99909.98;1786367;79;21023;-78
2022/07/01 02:37:34;;;;;;;8.23;7.40;;;;;;;22.02;74.43;99919.22;1782634;79;21098;-79
2022/07/01 02:40:03;;;;;;;8.75;7.85;;;;;;;22.08;74.55;99924.17;1792354;79;21571;-79
2022/07/01 02:42:34;;;;;;;8.25;7.42;;;;;;;22.15;74.46;99920.27;1778110;79;21116;-77
2022/07/01 02:44:58;;;;;;;9.13;8.13;;;;;;;22.16;74.54;99928.69;1785494;79;21031;-79
2022/07/01 02:47:25;;;;;;;11.18;7.87;;;;;;;22.16;74.36;99932.75;1786161;79;21075;-79
2022/07/01 02:49:55;;;;;;;9.00;8.10;;;;;;;22.16;74.33;99934.10;1721407;79;21214;-78
2022/07/01 02:52:22;;;;;;;9.25;8.35;;;;;;;22.16;74.16;99941.41;1798321;79;21299;-77
2022/07/01 02:54:49;;;;;;;9.65;7.65;;;;;;;22.12;74.18;99940.25;1798216;79;21504;-78
2022/07/01 02:57:16;;;;;;;9.35;8.53;;;;;;;22.17;74.36;99936.27;1798272;79;21060;-77
2022/07/01 02:59:42;;;;;;;9.23;8.30;;;;;;;22.26;74.58;99935.41;1782425;79;21331;-77
2022/07/01 03:02:08;;;;;;;9.45;7.72;;;;;;;22.25;74.39;99933.24;1772457;79;21241;-78
2022/07/01 03:04:36;;;;;;;9.88;8.88;;;;;;;22.25;74.45;99933.75;1789539;79;21045;-77
2022/07/01 03:07:03;;;;;;;9.18;8.28;;;;;;;22.25;74.83;99937.81;1772041;79;21046;-79
2022/07/01 03:09:30;;;;;;;9.85;9.05;;;;;;;22.24;74.62;99932.09;1789100;79;21084;-77
2022/07/01 03:11:57;;;;;;;9.33;8.43;;;;;;;22.23;74.77;99931.25;1791925;79;21045;-78
2022/07/01 03:14:24;;;;;;;9.10;8.10;;;;;;;22.31;74.85;99935.48;1772844;79;21870;-77
2022/07/01 03:16:50;;;;;;;10.45;9.15;;;;;;;22.41;74.84;99935.70;1780961;79;21085;-74
2022/07/01 03:19:17;;;;;;;9.83;8.93;;;;;;;22.35;75.31;99934.78;1761992;80;21616;-78
2022/07/01 03:21:45;;;;;;;9.75;8.70;;;;;;;22.29;75.52;99937.61;1784457;80;21526;-75
2022/07/01 03:24:11;;;;;;;10.50;9.45;;;;;;;22.26;75.65;99929.45;1764116;79;21034;-80
2022/07/01 03:26:39;;;;;;;9.48;8.65;;;;;;;22.27;75.73;99938.39;1769542;80;22215;-76
2022/07/01 03:29:06;;;;;;;9.83;8.93;;;;;;;22.24;75.52;99933.45;1756080;80;21493;-77
2022/07/01 03:31:33;;;;;;;10.48;9.58;;;;;;;22.22;75.68;99942.34;1765131;80;21013;-79
2022/07/01 03:33:59;;;;;;;9.70;8.70;;;;;;;22.24;75.58;99936.16;1781778;80;21053;-78
2022/07/01 03:36:25;;;;;;;9.90;9.00;;;;;;;22.17;76.08;99938.47;1786202;79;20998;-78
2022/07/01 03:38:52;;;;;;;12.25;9.53;;;;;;;22.14;76.29;99939.47;1749483;80;21227;-77
2022/07/01 03:41:20;;;;;;;10.48;9.40;;;;;;;22.13;76.85;99938.63;1777152;80;20989;-76
2022/07/01 03:43:46;;;;;;;8.75;7.95;;;;;;;22.14;76.92;99953.81;1776609;79;21088;-75
2022/07/01 03:46:13;;;;;;;8.80;7.60;;;;;;;22.22;76.77;99951.80;1780200;80;20975;-78
2022/07/01 03:48:39;;;;;;;9.40;8.40;;;;;;;22.36;76.57;99949.13;1776656;79;20980;-78
2022/07/01 03:51:06;;;;;;;10.05;9.15;;;;;;;22.43;76.50;99952.53;1764948;80;21548;-79
2022/07/01 03:56:18;;;;;;;10.05;8.93;;;;;;;22.42;76.13;99954.11;1773052;80;21069;-75
2022/07/01 03:58:45;;;;;;;11.60;9.60;;;;;;;22.46;76.30;99956.09;1775078;80;20966;-77
2022/07/01 04:01:11;;;;;;;11.08;9.70;;;;;;;22.51;75.62;99958.91;1782653;80;21074;-79
2022/07/01 04:03:38;;;;;;;10.00;9.03;;;;;;;22.63;76.06;99953.44;1779635;80;21251;-78
2022/07/01 04:06:05;;;;;;;10.90;9.28;;;;;;;22.79;75.15;99946.41;1750056;80;21524;-76
2022/07/01 04:08:32;;;;;;;9.70;8.83;;;;;;;22.89;74.64;99943.89;1769953;80;21045;-76
2022/07/01 04:10:58;;;;;;;10.03;9.13;;;;;;;23.00;74.04;99947.58;1781801;79;21647;-74
2022/07/01 04:13:27;;;;;;;9.75;8.85;;;;;;;23.11;73.46;99954.85;1809216;79;21053;-75
2022/07/01 04:15:54;;;;;;;9.65;8.85;;;;;;;23.19;73.64;99954.98;1781572;80;21148;-76
2022/07/01 04:18:21;;;;;;;9.73;8.80;;;;;;;23.23;72.92;99955.31;1773693;79;21127;-76
2022/07/01 04:22:32;;;;;;;9.43;8.30;;;;;;;23.26;72.65;99957.54;1768386;80;21089;-78
2022/07/01 04:23:16;;;;;;;9.53;8.63;;;;;;;23.27;72.49;99958.62;1770078;79;21618;-75
2022/07/01 04:25:43;;;;;;;12.15;8.68;;;;;;;;;;1766151;79;21607;-74
2022/07/01 04:28:09;;;;;;;10.15;8.45;;;;;;;23.53;72.24;99963.11;1766785;79;22112;-71
2022/07/01 04:30:35;;;;;;;10.82;8.65;;;;;;;23.60;72.44;99958.31;1767939;79;21021;-75
2022/07/01 04:33:02;;;;;;;9.50;8.53;;;;;;;23.68;72.33;99963.33;1764537;79;21124;-76
2022/07/01 04:35:29;;;;;;;9.93;9.10;;;;;;;23.73;72.46;99964.73;1765891;79;21176;-74
2022/07/01 04:37:57;;;;;;;10.35;9.03;;;;;;;23.78;72.61;99960.45;1769584;79;21076;-75
2022/07/01 04:40:24;;;;;;;10.65;9.55;;;;;;;23.85;72.13;99965.20;1764307;79;21140;-75
2022/07/01 04:42:50;;;;;;;13.08;8.78;;;;;;;23.91;71.82;99962.84;1783241;79;21025;-74
2022/07/01 04:45:17;;;;;;;10.95;9.88;;;;;;;23.95;71.42;99957.19;1779363;79;21108;-76
2022/07/01 04:47:43;;;;;;;10.70;9.68;;;;;;;24.00;71.03;99954.55;1776495;79;21173;-76
2022/07/01 04:50:10;;;;;;;8.95;8.15;;;;;;;24.05;70.79;99953.27;1760384;79;21517;-74
2022/07/01 04:52:37;;;;;;;11.00;9.95;;;;;;;24.16;70.09;99958.82;1763497;79;21788;-74
2022/07/01 04:55:06;;;;;;;11.35;9.90;;;;;;;24.27;69.68;99961.41;1768216;79;21119;-75
2022/07/01 04:57:33;;;;;;;10.40;9.45;;;;;;;24.33;69.52;99955.50;1791057;79;21053;-76
2022/07/01 05:00:00;;;;;;;10.58;8.90;;;;;;;24.38;68.93;99951.50;1763967;79;21036;-75
2022/07/01 05:02:26;;;;;;;9.98;8.98;;;;;;;24.40;68.79;99956.67;1768214;79;21020;-73
2022/07/01 05:04:54;;;;;;;10.00;9.20;;;;;;;24.44;69.07;99951.02;1762584;79;21610;-75
2022/07/01 05:07:31;;;;;;;9.83;8.93;;;;;;;24.49;69.19;99953.25;1764120;79;22388;-76
2022/07/01 05:09:59;;;;;;;8.88;8.18;;;;;;;24.52;68.31;99956.02;1763603;79;21048;-76
2022/07/01 05:12:26;;;;;;;8.43;7.60;;;;;;;24.51;68.06;99959.80;1765751;79;22015;-75
2022/07/01 05:14:53;;;;;;;8.05;7.25;;;;;;;24.49;67.81;99957.33;1767396;79;21045;-76
2022/07/01 05:17:19;;;;;;;10.78;9.48;;;;;;;24.50;67.51;99960.85;1764944;79;21182;-75
2022/07/01 05:22:31;;;;;;;12.07;8.05;;;;;;;24.45;67.66;99962.95;1774759;79;21059;-74
2022/07/01 05:24:59;;;;;;;10.08;9.05;;;;;;;24.46;67.94;99956.47;1760538;79;21029;-75
2022/07/01 05:27:26;;;;;;;12.58;9.38;;;;;;;24.58;68.08;99959.61;1758591;80;21331;-74
2022/07/01 05:29:53;;;;;;;9.80;8.80;;;;;;;24.66;68.07;99953.16;1750108;80;21781;-74
2022/07/01 05:35:00;;;;;;;11.15;8.00;;;;;;;24.78;67.63;99958.44;1862011;76;22647;-75
2022/07/01 05:37:26;;;;;;;8.73;7.85;;;;;;;24.85;67.63;99963.69;1789037;80;21051;-76
2022/07/01 05:39:52;;;;;;;8.38;7.60;;;;;;;25.01;67.11;99960.02;1777357;78;21048;-76
2022/07/01 05:42:19;;;;;;;9.63;8.65;;;;;;;25.20;66.80;99963.72;1766869;79;21045;-74
2022/07/01 05:44:45;;;;;;;8.15;7.45;;;;;;;25.33;66.60;99963.31;1759003;79;21039;-73
2022/07/01 05:47:12;;;;;;;8.55;7.35;;;;;;;25.45;65.70;99963.13;1768540;80;21153;-73
2022/07/01 05:49:39;;;;;;;8.48;7.78;;;;;;;25.58;65.39;99961.86;1761269;79;21030;-75
2022/07/01 05:52:06;;;;;;;9.25;8.25;;;;;;;25.68;65.15;99954.56;1779158;79;21217;-75
2022/07/01 05:54:32;;;;;;;9.50;7.12;;;;;;;25.78;65.03;99959.80;1768472;80;21340;-73
2022/07/01 05:56:59;;;;;;;8.45;7.20;;;;;;;25.86;64.58;99956.56;1760847;79;21114;-75
2022/07/01 05:59:26;;;;;;;8.13;7.42;;;;;;;25.94;64.37;99951.19;1773931;80;21035;-75
2022/07/01 06:01:52;;;;;;;7.47;6.45;;;;;;;26.02;63.66;99954.76;1764681;79;21229;-77
2022/07/01 06:04:19;;;;;;;7.90;6.65;;;;;;;26.11;63.44;99957.26;1777627;78;21122;-76
2022/07/01 06:06:45;;;;;;;7.92;6.95;;;;;;;26.21;62.82;99954.59;1767426;80;21085;-74
2022/07/01 06:09:13;;;;;;;7.65;6.83;;;;;;;26.31;63.11;99951.09;1787149;80;21454;-77
2022/07/01 06:11:41;;;;;;;7.20;6.60;;;;;;;26.37;62.65;99950.02;1762292;79;21065;-74
2022/07/01 06:14:08;;;;;;;7.67;6.92;;;;;;;26.43;62.37;99948.94;1774197;78;20985;-76
2022/07/01 06:16:34;;;;;;;7.87;7.08;;;;;;;26.48;61.79;99948.96;1759483;79;21135;-77
2022/07/01 06:19:01;;;;;;;9.28;6.53;;;;;;;26.57;61.56;99951.15;1781401;78;20989;-78
2022/07/01 06:21:28;;;;;;;7.15;6.37;;;;;;;26.65;61.27;99941.92;1781784;79;21037;-78
2022/07/01 06:23:55;;;;;;;7.55;6.80;;;;;;;26.78;61.08;99949.31;1775417;79;21081;-78
2022/07/01 06:26:21;;;;;;;7.53;6.83;;;;;;;26.88;60.91;99946.03;1778751;79;21054;-77
2022/07/01 06:28:49;;;;;;;9.08;6.50;;;;;;;26.97;60.52;99943.60;1774674;79;21217;-77
2022/07/01 06:31:16;;;;;;;7.25;6.53;;;;;;;27.04;60.69;99941.95;1773444;78;21041;-82
2022/07/01 06:33:43;;;;;;;7.62;6.90;;;;;;;27.08;59.75;99938.95;1757422;78;21077;-79
2022/07/01 06:36:10;;;;;;;9.00;7.08;;;;;;;27.09;59.75;99935.70;1764049;80;21069;-78
2022/07/01 06:38:37;;;;;;;7.60;6.42;;;;;;;27.09;59.67;99937.88;1744827;80;21097;-78
2022/07/01 06:43:48;;;;;;;7.47;6.78;;;;;;;26.96;60.27;99932.41;1752776;81;21010;-77
2022/07/01 06:46:15;;;;;;;10.75;6.95;;;;;;;26.90;60.36;99927.25;1750004;79;21038;-77
2022/07/01 06:48:41;;;;;;;8.15;7.35;;;;;;;26.93;60.49;99928.08;1741902;81;21042;-78
2022/07/01 06:51:08;;;;;;;8.18;7.40;;;;;;;26.96;60.19;99920.14;1751265;79;21012;-76
2022/07/01 06:53:35;;;;;;;8.68;7.58;;;;;;;26.97;60.14;99922.34;1759381;81;22092;-78
2022/07/01 06:56:02;;;;;;;12.23;7.58;;;;;;;26.98;60.22;99930.78;1775651;80;20985;-80
2022/07/01 06:58:29;;;;;;;8.15;7.30;;;;;;;27.01;60.05;99921.52;1775695;80;21557;-76
2022/07/01 07:00:55;;;;;;;8.13;7.28;;;;;;;27.09;59.88;99927.52;1754674;79;21082;-80
2022/07/01 07:03:22;;;;;;;8.20;7.53;;;;;;;27.15;59.60;99917.69;1741168;79;20974;-79
2022/07/01 07:05:48;;;;;;;8.88;8.08;;;;;;;27.21;59.32;99924.77;1791544;77;21266;-77
2022/07/01 07:08:15;;;;;;;8.43;7.72;;;;;;;27.25;59.20;99930.01;1754785;79;20989;-76
2022/07/01 07:10:42;;;;;;;7.97;7.20;;;;;;;27.28;58.94;99923.17;1764902;79;21104;-79
2022/07/01 07:13:09;;;;;;;7.12;6.53;;;;;;;27.34;58.48;99919.34;1771195;79;21049;-78
2022/07/01 07:15:41;;;;;;;8.10;6.37;;;;;;;27.44;58.06;99918.50;1775714;79;21603;-79
2022/07/01 07:18:05;;;;;;;7.62;6.53;;;;;;;27.58;57.83;99923.67;1749454;79;21338;-78
2022/07/01 07:20:32;;;;;;;7.87;6.20;;;;;;;27.75;58.17;99919.80;1754413;80;21021;-79
2022/07/01 07:22:59;;;;;;;6.90;6.28;;;;;;;27.88;57.56;99921.97;1752456;79;21017;-79
2022/07/01 07:25:26;;;;;;;6.80;6.10;;;;;;;27.98;57.54;99929.30;1763912;81;20999;-80
2022/07/01 07:27:52;;;;;;;8.80;6.90;;;;;;;28.04;57.43;99926.25;1752371;79;21018;-80
2022/07/01 07:30:21;;;;;;;8.43;7.03;;;;;;;28.08;57.87;99921.61;1760267;80;21193;-80
2022/07/01 07:32:48;;;;;;;7.37;6.67;;;;;;;28.13;58.01;99918.86;1754874;81;21067;-79
2022/07/01 07:35:15;;;;;;;6.95;6.25;;;;;;;28.19;57.98;99913.08;1775556;80;21006;-75
2022/07/01 07:37:41;;;;;;;6.75;6.15;;;;;;;28.25;57.60;99919.34;1775273;80;21108;-78
2022/07/01 07:40:13;;;;;;;7.42;6.72;;;;;;;28.30;57.57;99923.95;1763699;81;21011;-79
2022/07/01 07:42:40;;;;;;;6.80;6.20;;;;;;;28.28;57.83;99924.25;1778451;79;22241;-80
2022/07/01 07:45:11;;;;;;;7.75;6.80;;;;;;;28.29;57.10;99912.77;1733364;80;21132;-80
2022/07/01 07:47:38;;;;;;;9.00;6.87;;;;;;;28.24;57.12;99910.89;1758508;79;21632;-79
2022/07/01 07:50:06;;;;;;;6.80;6.20;;;;;;;28.22;57.11;99907.59;1754254;79;21062;-81
2022/07/01 07:52:33;;;;;;;7.22;6.42;;;;;;;28.20;57.25;99916.09;1764865;79;21167;-78
2022/07/01 07:54:59;;;;;;;7.83;7.00;;;;;;;28.16;57.33;99906.00;1765011;79;21090;-79
2022/07/01 07:57:26;;;;;;;7.08;6.53;;;;;;;28.14;57.49;99906.83;1767328;80;21037;-79
2022/07/01 07:59:52;;;;;;;7.80;6.95;;;;;;;28.13;57.78;99902.48;1773023;79;21411;-79
2022/07/01 08:02:19;;;;;;;7.58;6.97;;;;;;;28.13;57.64;99899.75;1758846;79;21090;-77
2022/07/01 08:04:45;;;;;;;8.48;7.67;;;;;;;28.10;57.61;99894.28;1758989;80;21001;-78
2022/07/01 08:07:11;;;;;;;7.90;7.20;;;;;;;28.08;57.56;99907.95;1766204;80;21265;-80
2022/07/01 08:09:41;;;;;;;8.03;7.25;;;;;;;28.09;58.54;99901.41;1758074;79;21058;-78
2022/07/01 08:12:08;;;;;;;8.13;7.53;;;;;;;28.11;58.70;99901.95;1774997;80;21147;-79
2022/07/01 08:14:35;;;;;;;7.65;6.95;;;;;;;28.18;58.66;99905.16;1777844;79;20962;-79
2022/07/01 08:17:01;;;;;;;8.05;6.62;;;;;;;28.23;58.44;99905.15;1764386;79;21034;-77
2022/07/01 08:19:28;;;;;;;7.22;6.37;;;;;;;28.27;57.41;99900.75;1740519;80;21592;-79
2022/07/01 08:21:54;;;;;;;8.98;5.87;;;;;;;28.34;56.68;99910.83;1764075;79;21052;-77
2022/07/01 08:24:22;;;;;;;6.78;5.58;;;;;;;28.44;56.10;99906.66;1746777;80;21553;-78
2022/07/01 08:26:49;;;;;;;5.60;5.10;;;;;;;28.57;55.73;99905.80;1755105;79;21017;-78
2022/07/01 08:29:15;;;;;;;6.58;5.97;;;;;;;28.68;54.54;99896.41;1752693;79;21490;-78
2022/07/01 08:31:42;;;;;;;7.20;6.40;;;;;;;28.77;54.09;99900.73;1752029;80;21159;-78
2022/07/01 08:34:09;;;;;;;7.15;6.22;;;;;;;28.84;53.58;99898.49;1774728;80;21071;-78
2022/07/01 08:36:36;;;;;;;6.83;6.15;;;;;;;28.88;53.65;99906.91;1819465;78;21037;-79
2022/07/01 08:39:04;;;;;;;6.58;5.83;;;;;;;28.90;53.32;99905.55;1808658;78;21033;-77
2022/07/01 08:41:31;;;;;;;6.92;6.33;;;;;;;28.91;53.52;99902.25;1810326;77;21036;-77
2022/07/01 08:43:57;;;;;;;8.38;5.80;;;;;;;28.96;53.16;99895.38;1817058;77;21083;-78
2022/07/01 08:46:28;;;;;;;6.40;5.90;;;;;;;29.06;52.97;99899.39;1794998;77;21057;-78
2022/07/01 08:48:55;;;;;;;6.95;6.45;;;;;;;29.19;52.75;99906.15;1797133;77;21208;-78
2022/07/01 08:51:21;;;;;;;7.05;6.22;;;;;;;29.25;52.37;99900.89;1786272;78;21034;-80
2022/07/01 08:53:48;;;;;;;6.25;5.75;;;;;;;29.26;52.47;99897.59;1811346;78;21123;-78
2022/07/01 08:59:01;;;;;;;7.85;6.28;;;;;;;29.33;51.60;99909.83;1795777;77;21030;-77
2022/07/01 09:01:28;;;;;;;6.53;5.85;;;;;;;29.39;51.30;99901.83;1797243;77;21112;-77
2022/07/01 09:03:57;;;;;;;7.72;5.33;;;;;;;29.49;50.94;99905.56;1789738;78;21000;-77
2022/07/01 09:06:29;;;;;;;5.87;5.28;;;;;;;29.61;50.95;99896.38;1832456;77;21038;-78
2022/07/01 09:08:57;;;;;;;5.85;5.30;;;;;;;29.82;50.78;99905.77;1818703;78;21475;-78
2022/07/01 09:11:25;;;;;;;5.67;5.17;;;;;;;30.01;50.15;99899.77;1776553;78;21065;-78
2022/07/01 09:14:10;;;;;;;6.20;5.62;;;;;;;30.11;48.24;99897.45;1823179;77;21071;-77
2022/07/01 09:16:48;;;;;;;9.18;5.53;;;;;;;30.17;48.73;99881.20;1810711;78;21524;-76
2022/07/01 09:19:18;;;;;;;5.60;5.10;;;;;;;30.27;48.30;99882.98;1808187;77;21270;-76
2022/07/01 09:21:56;;;;;;;5.92;5.25;;;;;;;30.40;48.93;99886.38;1832830;77;21103;-78
2022/07/01 09:24:37;;;;;;;5.75;5.25;;;;;;;30.53;48.62;99890.31;1822484;77;21100;-77
2022/07/01 09:27:12;;;;;;;6.72;5.62;;;;;;;30.75;48.37;99896.53;1820695;78;21021;-78
2022/07/01 09:29:45;;;;;;;6.10;5.60;;;;;;;31.04;47.72;99889.52;1808791;77;21544;-76
2022/07/01 09:32:14;;;;;;;7.10;5.53;;;;;;;31.42;47.38;99883.06;1816094;77;21065;-77
2022/07/01 09:34:49;;;;;;;5.65;5.05;;;;;;;31.88;46.53;99885.72;1789804;78;21520;-78
2022/07/01 09:37:22;;;;;;;9.58;5.22;;;;;;;32.36;45.29;99887.75;1823264;77;21565;-77
2022/07/01 09:39:51;;;;;;;5.37;4.97;;;;;;;32.87;44.14;99885.95;1818889;77;21096;-78
2022/07/01 09:42:20;;;;;;;7.17;5.03;;;;;;;33.39;43.12;99881.90;1825059;77;21022;-78
2022/07/01 09:45:06;;;;;;;6.37;4.67;;;;;;;33.88;42.07;99882.17;1825382;77;21025;-78
2022/07/01 09:47:35;;;;;;;5.25;4.17;;;;;;;34.33;40.73;99877.56;1819042;77;21281;-78
2022/07/01 09:50:03;;;;;;;4.85;4.40;;;;;;;34.73;39.96;99882.89;1811884;78;21026;-77
2022/07/01 09:52:30;;;;;;;5.40;4.62;;;;;;;35.12;38.80;99876.88;1825490;78;21537;-76
2022/07/01 09:54:57;;;;;;;5.08;4.37;;;;;;;35.56;38.96;99881.69;1825744;78;21505;-77
2022/07/01 09:57:24;;;;;;;4.80;4.40;;;;;;;36.00;38.47;99867.87;1823853;78;21074;-75
2022/07/01 09:59:51;;;;;;;6.72;4.85;;;;;;;36.45;37.77;99870.58;1809325;77;21010;-74
2022/07/01 10:02:18;;;;;;;5.65;4.62;;;;;;;36.80;37.12;99874.42;1797541;77;21131;-75
2022/07/01 10:04:52;;;;;;;4.90;4.50;;;;;;;37.13;36.51;99874.41;1809419;78;21014;-73
2022/07/01 10:07:58;;;;;;;4.37;3.98;;;;;;;37.53;35.59;99879.84;1820038;78;21028;-77
2022/07/01 10:10:52;;;;;;;5.22;3.67;;;;;;;37.85;35.00;99864.85;1751700;78;20989;-75
2022/07/01 10:13:22;;;;;;;5.05;3.60;;;;;;;38.24;33.66;99869.41;1808284;77;21513;-74
2022/07/01 10:15:51;;;;;;;4.25;3.40;;;;;;;38.63;32.83;99864.98;1823180;77;21021;-76
2022/07/01 10:18:25;;;;;;;4.03;3.58;;;;;;;38.98;32.40;99858.77;1828199;77;21022;-78
2022/07/01 10:20:53;;;;;;;6.97;3.80;;;;;;;39.17;32.18;99853.92;1826602;77;21057;-75
2022/07/01 10:23:21;;;;;;;3.60;3.33;;;;;;;39.47;32.25;99854.89;1806799;78;21096;-74
2022/07/01 10:25:52;;;;;;;3.15;2.95;;;;;;;39.81;31.23;99856.05;1825522;78;21087;-74
2022/07/01 10:28:31;;;;;;;3.00;2.80;;;;;;;40.08;30.66;99854.31;1822046;77;21517;-77
2022/07/01 10:31:07;;;;;;;3.40;3.10;;;;;;;40.28;29.35;99856.50;1817915;78;21065;-74
2022/07/01 10:33:42;;;;;;;3.10;2.90;;;;;;;40.44;29.46;99856.45;1805515;77;21041;-78
2022/07/01 10:36:31;;;;;;;4.00;2.80;;;;;;;40.64;28.47;99861.42;1816654;77;21096;-78
2022/07/01 10:39:09;;;;;;;4.37;2.75;;;;;;;40.51;28.17;99850.23;1817343;77;21212;-75
2022/07/01 10:41:47;;;;;;;3.02;2.72;;;;;;;40.44;27.88;99852.86;1818514;77;21151;-77
2022/07/01 10:44:14;;;;;;;2.80;2.60;;;;;;;40.54;27.68;99852.85;1817609;77;21009;-76
2022/07/01 10:46:50;;;;;;;3.33;2.42;;;;;;;40.71;26.79;99841.84;1799166;77;21036;-75
2022/07/01 10:49:19;;;;;;;3.60;2.65;;;;;;;40.97;26.72;99843.91;1815687;77;21068;-77
2022/07/01 10:51:53;;;;;;;5.12;2.77;;;;;;;41.30;26.35;99839.13;1817628;77;21089;-75
2022/07/01 10:54:45;;;;;;;3.42;2.87;;;;;;;41.75;26.09;99836.03;1820249;77;21038;-76
2022/07/01 10:57:25;;;;;;;2.92;2.72;;;;;;;41.75;26.09;99836.03;1819121;77;21002;-75
2022/07/01 10:59:59;;;;;;;3.47;2.98;;;;;;;42.02;25.67;99828.42;1819304;77;21038;-76
2022/07/01 11:02:29;;;;;;;2.90;2.60;;;;;;;42.22;25.57;99830.47;1820699;77;21548;-76
2022/07/01 11:05:07;;;;;;;4.62;2.67;;;;;;;42.38;25.38;99831.67;1819186;77;21205;-76
2022/07/01 11:07:35;;;;;;;2.72;2.47;;;;;;;42.66;25.13;99833.17;1804922;77;21049;-74
2022/07/01 11:10:06;;;;;;;3.77;2.60;;;;;;;42.79;24.22;99836.50;1804204;77;21498;-76
2022/07/01 11:12:32;;;;;;;2.95;2.35;;;;;;;42.74;24.57;99834.05;1796549;77;21146;-76
2022/07/01 11:15:01;;;;;;;3.00;2.70;;;;;;;42.84;24.81;99831.94;1798305;76;21080;-74
2022/07/01 11:17:28;;;;;;;2.95;2.75;;;;;;;42.86;24.88;99835.75;1802066;77;21270;-74
2022/07/01 11:19:57;;;;;;;3.47;3.20;;;;;;;42.98;25.77;99831.28;1811714;77;22381;-76
2022/07/01 11:22:27;;;;;;;4.78;3.30;;;;;;;43.17;26.79;99824.66;1814758;77;20998;-76
2022/07/01 11:24:55;;;;;;;6.40;3.30;;;;;;;43.24;27.19;99818.33;1810453;77;21049;-77
2022/07/01 11:27:22;;;;;;;4.75;2.90;;;;;;;43.40;26.79;99830.84;1819401;77;20969;-76
2022/07/01 11:29:57;;;;;;;3.00;2.80;;;;;;;43.44;26.25;99821.08;1793208;76;21390;-75
2022/07/01 11:32:35;;;;;;;4.85;3.85;;;;;;;43.37;26.08;99823.25;1816993;77;21030;-76
2022/07/01 11:39:21;;;;;;;4.33;2.92;;;;;;;43.40;26.05;99818.26;1821835;77;21009;-74
2022/07/01 11:40:17;;;;;;;3.17;2.92;;;;;;;43.70;26.05;99820.69;1816011;77;21322;-77
2022/07/01 11:42:44;;;;;;;3.02;2.70;;;;;;;43.78;25.80;99828.70;1819025;77;21294;-77
2022/07/01 11:45:26;;;;;;;3.33;3.02;;;;;;;43.81;25.71;99822.12;1804578;77;21053;-76
2022/07/01 11:47:53;;;;;;;3.12;2.92;;;;;;;43.97;25.37;99828.20;1837136;77;21018;-75
2022/07/01 11:50:19;;;;;;;3.95;3.30;;;;;;;44.14;25.15;99819.67;1807116;77;21497;-75
2022/07/01 11:52:46;;;;;;;4.28;3.30;;;;;;;44.32;25.32;99822.55;1807839;77;21034;-73